Time;durP1;ratioP1;P1;durP2;ratioP2;P2;SDS_P1;SDS_P2;PMS_P1;PMS_P2;Temp;Humidity;BMP_temperature;BMP_pressure;BME280_temperature;BME280_humidity;BME280_pressure;Samples;Min_cycle;Max_cycle;Signal;HPM_P1;HPM_P2
2021/03/22 00:00:31;;;;;;;21.20;14.17;;;;;;;;;;1048596;28;20464;-45
2021/03/22 00:01:06;;;;;;;23.73;14.52;;;;;;;;;;1048605;28;20392;-45
2021/03/22 00:01:36;;;;;;;19.35;13.93;;;;;;;;;;1048570;28;20012;-46
2021/03/22 00:02:07;;;;;;;24.00;15.00;;;;;;;;;;1050775;28;20078;-46
2021/03/22 00:02:37;;;;;;;20.70;13.73;;;;;;;;;;1052564;28;20026;-46
2021/03/22 00:03:07;;;;;;;20.50;13.77;;;;;;;;;;1052769;28;20015;-46
2021/03/22 00:03:38;;;;;;;21.47;13.53;;;;;;;;;;1052316;28;20030;-46
2021/03/22 00:04:08;;;;;;;20.37;14.07;;;;;;;;;;1049704;28;20016;-48
2021/03/22 00:04:38;;;;;;;24.13;13.83;;;;;;;;;;1048307;28;20113;-46
2021/03/22 00:05:09;;;;;;;21.10;14.37;;;;;;;;;;1048197;28;20077;-48
2021/03/22 00:05:39;;;;;;;16.87;13.33;;;;;;;;;;1048303;28;20008;-46
2021/03/22 00:06:09;;;;;;;20.97;14.33;;;;;;;;;;1049712;28;20092;-46
2021/03/22 00:06:40;;;;;;;22.20;14.13;;;;;;;;;;1048477;28;20019;-46
2021/03/22 00:07:10;;;;;;;22.73;14.77;;;;;;;;;;1048474;28;20098;-46
2021/03/22 00:07:41;;;;;;;23.97;14.30;;;;;;;;;;1048513;28;20020;-49
2021/03/22 00:08:11;;;;;;;24.63;15.00;;;;;;;;;;1051473;28;20012;-47
2021/03/22 00:08:41;;;;;;;22.07;13.70;;;;;;;;;;1052626;28;20012;-46
2021/03/22 00:09:12;;;;;;;26.93;14.57;;;;;;;;;;1051177;28;20098;-46
2021/03/22 00:09:42;;;;;;;22.40;13.50;;;;;;;;;;1048505;28;20009;-46
2021/03/22 00:10:12;;;;;;;24.60;14.60;;;;;;;;;;1051642;28;20792;-48
2021/03/22 00:10:43;;;;;;;20.33;14.13;;;;;;;;;;1052700;28;20031;-47
2021/03/22 00:11:13;;;;;;;19.23;13.80;;;;;;;;;;1052838;28;20023;-47
2021/03/22 00:11:44;;;;;;;24.77;14.47;;;;;;;;;;1052884;28;20017;-45
2021/03/22 00:12:14;;;;;;;22.47;14.23;;;;;;;;;;1049423;28;20425;-46
2021/03/22 00:12:45;;;;;;;21.53;14.47;;;;;;;;;;1048712;28;20008;-47
2021/03/22 00:13:15;;;;;;;23.20;14.40;;;;;;;;;;1048773;28;20384;-46
2021/03/22 00:13:46;;;;;;;23.60;14.97;;;;;;;;;;1048467;28;20066;-46
2021/03/22 00:14:16;;;;;;;22.73;13.83;;;;;;;;;;1048588;28;20116;-46
2021/03/22 00:14:46;;;;;;;23.80;13.40;;;;;;;;;;1048677;28;20511;-45
2021/03/22 00:15:17;;;;;;;23.20;14.63;;;;;;;;;;1048655;28;20430;-46
2021/03/22 00:15:47;;;;;;;23.40;14.80;;;;;;;;;;1048907;28;20000;-45
2021/03/22 00:16:18;;;;;;;22.10;14.27;;;;;;;;;;1049035;28;20345;-45
2021/03/22 00:16:49;;;;;;;20.13;14.00;;;;;;;;;;1048683;28;20013;-46
2021/03/22 00:17:19;;;;;;;23.70;14.33;;;;;;;;;;1048513;28;20142;-47
2021/03/22 00:17:50;;;;;;;25.00;14.17;;;;;;;;;;1048305;28;20460;-48
2021/03/22 00:18:21;;;;;;;25.40;14.33;;;;;;;;;;1052620;28;20012;-45
2021/03/22 00:18:51;;;;;;;21.77;13.68;;;;;;;;;;1052940;28;20122;-48
2021/03/22 00:19:21;;;;;;;22.53;14.73;;;;;;;;;;1052888;28;20419;-45
2021/03/22 00:19:52;;;;;;;22.97;14.37;;;;;;;;;;1053001;28;20016;-45
2021/03/22 00:20:22;;;;;;;23.10;14.40;;;;;;;;;;1053013;28;20095;-46
2021/03/22 00:20:53;;;;;;;20.00;13.53;;;;;;;;;;1052944;28;20403;-48
2021/03/22 00:21:23;;;;;;;20.13;14.00;;;;;;;;;;1052962;28;20015;-48
2021/03/22 00:21:53;;;;;;;25.50;15.20;;;;;;;;;;1052022;28;20102;-48
2021/03/22 00:22:24;;;;;;;21.07;14.03;;;;;;;;;;1048903;28;20126;-48
2021/03/22 00:22:54;;;;;;;21.97;13.70;;;;;;;;;;1048854;28;20061;-48
2021/03/22 00:23:24;;;;;;;27.80;14.07;;;;;;;;;;1048456;28;20005;-47
2021/03/22 00:23:54;;;;;;;22.60;13.97;;;;;;;;;;1049535;28;20016;-48
2021/03/22 00:24:25;;;;;;;24.80;14.87;;;;;;;;;;1052932;28;20011;-50
2021/03/22 00:24:55;;;;;;;19.40;14.07;;;;;;;;;;1052829;28;20015;-47
2021/03/22 00:25:25;;;;;;;22.53;14.73;;;;;;;;;;1052921;28;20054;-49
2021/03/22 00:25:55;;;;;;;25.70;14.70;;;;;;;;;;1051794;28;20008;-47
2021/03/22 00:26:27;;;;;;;26.03;14.40;;;;;;;;;;1048818;28;20105;-50
2021/03/22 00:26:57;;;;;;;20.33;13.98;;;;;;;;;;1048252;28;20065;-48
2021/03/22 00:27:27;;;;;;;25.57;14.17;;;;;;;;;;1048513;28;20073;-49
2021/03/22 00:27:58;;;;;;;22.00;13.97;;;;;;;;;;1049502;28;20027;-49
2021/03/22 00:28:28;;;;;;;23.93;14.87;;;;;;;;;;1052642;28;20342;-46
2021/03/22 00:28:58;;;;;;;22.47;13.80;;;;;;;;;;1052800;28;20016;-45
2021/03/22 00:29:29;;;;;;;24.50;15.17;;;;;;;;;;1052916;28;20039;-45
2021/03/22 00:29:59;;;;;;;25.13;14.97;;;;;;;;;;1052783;28;20012;-48
2021/03/22 00:30:31;;;;;;;23.53;14.93;;;;;;;;;;1052929;28;20419;-46
2021/03/22 00:31:01;;;;;;;23.58;14.38;;;;;;;;;;1052973;28;20023;-45
2021/03/22 00:31:31;;;;;;;21.47;14.17;;;;;;;;;;1053063;28;20035;-45
2021/03/22 00:32:02;;;;;;;24.67;15.00;;;;;;;;;;1051055;28;20016;-43
2021/03/22 00:32:32;;;;;;;22.93;15.00;;;;;;;;;;1048647;28;20025;-46
2021/03/22 00:33:02;;;;;;;28.03;15.37;;;;;;;;;;1048721;28;20016;-46
2021/03/22 00:33:33;;;;;;;25.27;14.70;;;;;;;;;;1048489;28;20016;-48
2021/03/22 00:34:03;;;;;;;24.33;14.50;;;;;;;;;;1048267;28;20433;-47
2021/03/22 00:34:33;;;;;;;23.00;15.27;;;;;;;;;;1048401;28;20027;-47
2021/03/22 00:35:04;;;;;;;25.30;15.17;;;;;;;;;;1048362;28;20020;-46
2021/03/22 00:35:34;;;;;;;22.50;14.67;;;;;;;;;;1040282;28;20059;-49
2021/03/22 00:36:05;;;;;;;23.43;14.20;;;;;;;;;;1048978;28;20465;-46
2021/03/22 00:36:35;;;;;;;27.55;14.98;;;;;;;;;;1048195;28;20094;-46
2021/03/22 00:37:06;;;;;;;23.33;15.43;;;;;;;;;;1047906;28;20021;-47
2021/03/22 00:37:36;;;;;;;24.87;15.40;;;;;;;;;;1047944;28;20028;-48
2021/03/22 00:38:06;;;;;;;25.90;14.63;;;;;;;;;;1043585;28;20048;-46
2021/03/22 00:38:37;;;;;;;20.90;14.63;;;;;;;;;;1051971;28;20054;-47
2021/03/22 00:39:07;;;;;;;24.40;14.47;;;;;;;;;;1052026;28;20484;-46
2021/03/22 00:39:37;;;;;;;27.23;14.87;;;;;;;;;;1049287;28;20107;-46
2021/03/22 00:40:08;;;;;;;22.73;13.67;;;;;;;;;;1048236;28;20028;-46
2021/03/22 00:40:39;;;;;;;21.70;15.13;;;;;;;;;;1052530;28;20012;-49
2021/03/22 00:41:10;;;;;;;22.65;15.38;;;;;;;;;;1052403;28;20019;-48
2021/03/22 00:41:40;;;;;;;26.70;14.95;;;;;;;;;;1052129;28;20532;-45
2021/03/22 00:42:10;;;;;;;24.17;14.77;;;;;;;;;;1052190;28;20016;-46
2021/03/22 00:42:41;;;;;;;23.37;14.83;;;;;;;;;;1052480;28;20020;-46
2021/03/22 00:43:11;;;;;;;23.33;15.30;;;;;;;;;;1052538;28;20027;-48
2021/03/22 00:43:42;;;;;;;25.43;15.90;;;;;;;;;;1052787;28;20125;-48
2021/03/22 00:44:12;;;;;;;19.83;14.87;;;;;;;;;;1052704;28;20035;-48
2021/03/22 00:44:42;;;;;;;23.57;15.33;;;;;;;;;;1052880;28;20039;-45
2021/03/22 00:45:13;;;;;;;25.57;15.87;;;;;;;;;;1052583;28;20468;-48
2021/03/22 00:45:43;;;;;;;26.90;15.47;;;;;;;;;;1052634;28;20081;-45
2021/03/22 00:46:13;;;;;;;27.00;15.20;;;;;;;;;;1051040;28;20024;-45
2021/03/22 00:46:44;;;;;;;25.40;15.83;;;;;;;;;;1048269;28;20491;-45
2021/03/22 00:47:14;;;;;;;23.80;15.50;;;;;;;;;;1048276;28;20101;-45
2021/03/22 00:47:44;;;;;;;24.50;15.27;;;;;;;;;;1048657;28;20450;-45
2021/03/22 00:48:15;;;;;;;25.00;15.93;;;;;;;;;;1049708;28;20362;-45
2021/03/22 00:48:45;;;;;;;28.37;15.83;;;;;;;;;;1052787;28;20037;-45
2021/03/22 00:49:15;;;;;;;25.83;15.97;;;;;;;;;;1052788;28;20040;-45
2021/03/22 00:49:45;;;;;;;27.07;14.97;;;;;;;;;;1052700;28;20016;-45
2021/03/22 00:50:20;;;;;;;23.17;15.20;;;;;;;;;;1052738;28;20048;-45
2021/03/22 00:50:51;;;;;;;20.83;14.98;;;;;;;;;;1049704;28;20116;-51
2021/03/22 00:51:21;;;;;;;26.73;15.73;;;;;;;;;;1046111;28;20028;-47
2021/03/22 00:51:51;;;;;;;28.13;14.87;;;;;;;;;;1049893;28;20028;-45
2021/03/22 00:52:22;;;;;;;26.43;16.00;;;;;;;;;;1050769;28;20016;-53
2021/03/22 00:52:52;;;;;;;23.87;15.97;;;;;;;;;;1049610;28;20115;-46
2021/03/22 00:53:22;;;;;;;26.43;15.17;;;;;;;;;;1052125;28;20016;-46
2021/03/22 00:53:52;;;;;;;25.40;16.70;;;;;;;;;;1051946;28;20078;-46
2021/03/22 00:54:23;;;;;;;23.90;15.27;;;;;;;;;;1051885;28;20087;-47
2021/03/22 00:54:53;;;;;;;23.80;16.07;;;;;;;;;;1051890;28;20028;-46
2021/03/22 00:55:23;;;;;;;26.10;15.83;;;;;;;;;;1051625;28;20095;-48
2021/03/22 00:55:53;;;;;;;25.73;15.43;;;;;;;;;;1051500;28;20042;-45
2021/03/22 00:56:24;;;;;;;27.00;15.93;;;;;;;;;;1051958;28;20031;-46
2021/03/22 00:56:54;;;;;;;25.33;16.03;;;;;;;;;;1051335;28;20016;-47
2021/03/22 00:57:24;;;;;;;25.00;15.53;;;;;;;;;;1051533;28;20102;-46
2021/03/22 00:57:55;;;;;;;24.73;15.33;;;;;;;;;;1051920;28;20043;-47
2021/03/22 00:58:25;;;;;;;24.77;15.03;;;;;;;;;;1052571;28;20008;-46
2021/03/22 00:58:55;;;;;;;26.10;16.13;;;;;;;;;;1052722;28;20016;-46
2021/03/22 00:59:25;;;;;;;24.87;15.40;;;;;;;;;;1052586;28;20107;-46
2021/03/22 00:59:56;;;;;;;24.00;15.00;;;;;;;;;;1052491;28;20165;-47
2021/03/22 01:00:26;;;;;;;25.93;15.80;;;;;;;;;;1051720;28;20437;-46
2021/03/22 01:00:57;;;;;;;24.57;15.60;;;;;;;;;;1051107;28;20012;-46
2021/03/22 01:01:27;;;;;;;24.27;15.97;;;;;;;;;;1049060;28;20021;-46
2021/03/22 01:01:57;;;;;;;29.00;16.47;;;;;;;;;;1052218;28;20429;-46
2021/03/22 01:02:28;;;;;;;24.97;16.20;;;;;;;;;;1052185;28;20016;-47
2021/03/22 01:02:58;;;;;;;23.07;16.27;;;;;;;;;;1052551;28;20016;-45
2021/03/22 01:03:29;;;;;;;22.77;15.70;;;;;;;;;;1052269;28;20043;-46
2021/03/22 01:04:00;;;;;;;24.58;15.65;;;;;;;;;;1052554;28;20039;-45
2021/03/22 01:04:30;;;;;;;29.63;16.63;;;;;;;;;;1052137;28;20035;-46
2021/03/22 01:05:00;;;;;;;24.03;16.63;;;;;;;;;;1047969;28;20012;-45
2021/03/22 01:05:31;;;;;;;28.37;17.10;;;;;;;;;;1047739;28;20070;-44
2021/03/22 01:06:01;;;;;;;26.90;16.50;;;;;;;;;;1043781;28;20084;-48
2021/03/22 01:06:31;;;;;;;26.37;16.47;;;;;;;;;;1046450;28;20013;-45
2021/03/22 01:07:02;;;;;;;23.63;15.73;;;;;;;;;;1048102;28;20008;-47
2021/03/22 01:07:32;;;;;;;25.47;15.80;;;;;;;;;;1048162;28;20024;-46
2021/03/22 01:08:02;;;;;;;23.73;15.90;;;;;;;;;;1052285;28;20074;-45
2021/03/22 01:08:33;;;;;;;24.50;16.77;;;;;;;;;;1052321;28;20028;-47
2021/03/22 01:09:04;;;;;;;25.50;16.87;;;;;;;;;;1052037;28;20023;-45
2021/03/22 01:09:34;;;;;;;27.87;16.07;;;;;;;;;;1047996;28;20028;-46
2021/03/22 01:10:07;;;;;;;24.27;16.30;;;;;;;;;;1043861;28;20028;-46
2021/03/22 01:10:47;;;;;;;25.35;16.00;;;;;;;;;;1044247;28;20043;-45
2021/03/22 01:11:18;;;;;;;24.95;17.15;;;;;;;;;;1049702;28;20473;-45
2021/03/22 01:11:49;;;;;;;24.42;15.70;;;;;;;;;;1052191;28;20024;-46
2021/03/22 01:12:19;;;;;;;25.10;16.83;;;;;;;;;;1052509;28;20070;-46
2021/03/22 01:12:49;;;;;;;29.20;18.17;;;;;;;;;;1052580;28;20517;-45
2021/03/22 01:13:24;;;;;;;24.97;17.70;;;;;;;;;;1052585;28;20050;-45
2021/03/22 01:13:55;;;;;;;29.38;18.15;;;;;;;;;;1052596;28;20008;-47
2021/03/22 01:14:25;;;;;;;24.38;17.63;;;;;;;;;;1052537;28;20019;-48
2021/03/22 01:14:55;;;;;;;25.80;19.50;;;;;;;;;;1052700;28;20396;-46
2021/03/22 01:15:26;;;;;;;27.07;19.73;;;;;;;;;;1052640;28;20425;-46
2021/03/22 01:15:56;;;;;;;28.63;20.50;;;;;;;;;;1052302;28;20015;-47
2021/03/22 01:16:27;;;;;;;25.37;19.20;;;;;;;;;;1052624;28;20087;-49
2021/03/22 01:16:58;;;;;;;31.98;20.23;;;;;;;;;;1052444;28;20012;-45
2021/03/22 01:17:28;;;;;;;25.07;17.93;;;;;;;;;;1052507;28;20103;-47
2021/03/22 01:17:58;;;;;;;27.13;16.73;;;;;;;;;;1052176;28;20499;-46
2021/03/22 01:18:31;;;;;;;30.10;17.47;;;;;;;;;;1052389;28;20035;-46
2021/03/22 01:19:05;;;;;;;29.45;18.65;;;;;;;;;;1052295;28;20008;-46
2021/03/22 01:19:36;;;;;;;28.30;17.50;;;;;;;;;;1052578;28;20068;-45
2021/03/22 01:20:10;;;;;;;29.43;18.47;;;;;;;;;;1048522;28;20422;-45
2021/03/22 01:20:45;;;;;;;28.40;18.60;;;;;;;;;;1051697;28;20012;-45
2021/03/22 01:21:21;;;;;;;28.58;16.80;;;;;;;;;;1052578;28;20423;-45
2021/03/22 01:21:55;;;;;;;24.90;17.90;;;;;;;;;;1052518;28;20011;-47
2021/03/22 01:22:25;;;;;;;31.85;18.25;;;;;;;;;;1052440;28;20091;-47
2021/03/22 01:22:56;;;;;;;29.17;18.73;;;;;;;;;;1052613;28;20024;-47
2021/03/22 01:23:26;;;;;;;26.47;17.80;;;;;;;;;;1052432;28;20016;-44
2021/03/22 01:23:56;;;;;;;28.00;18.23;;;;;;;;;;1052801;28;20016;-45
2021/03/22 01:24:27;;;;;;;28.80;17.53;;;;;;;;;;1050043;28;20012;-46
2021/03/22 01:24:57;;;;;;;29.00;18.70;;;;;;;;;;1052736;28;20040;-48
2021/03/22 01:25:28;;;;;;;27.73;17.90;;;;;;;;;;1052737;28;20370;-45
2021/03/22 01:25:58;;;;;;;25.37;17.87;;;;;;;;;;1052636;28;20369;-45
2021/03/22 01:26:30;;;;;;;27.33;17.40;;;;;;;;;;1052725;28;20016;-45
2021/03/22 01:27:02;;;;;;;25.73;17.98;;;;;;;;;;1052572;28;20012;-45
2021/03/22 01:27:33;;;;;;;31.00;18.13;;;;;;;;;;1052590;28;20077;-45
2021/03/22 01:28:03;;;;;;;25.47;17.37;;;;;;;;;;1052551;28;20527;-45
2021/03/22 01:28:34;;;;;;;25.53;16.73;;;;;;;;;;1052613;28;20012;-46
2021/03/22 01:29:08;;;;;;;29.00;18.10;;;;;;;;;;1052697;28;20000;-47
2021/03/22 01:29:39;;;;;;;27.90;16.75;;;;;;;;;;1052651;28;20034;-47
2021/03/22 01:30:33;;;;;;;27.10;18.03;;;;;;;;;;1052896;28;20046;-45
2021/03/22 01:31:04;;;;;;;33.58;17.92;;;;;;;;;;1051990;28;20027;-45
2021/03/22 01:31:34;;;;;;;26.97;18.17;;;;;;;;;;1052481;28;20012;-45
2021/03/22 01:32:05;;;;;;;29.57;18.10;;;;;;;;;;1052601;28;20110;-46
2021/03/22 01:32:35;;;;;;;27.65;18.08;;;;;;;;;;1052481;28;20080;-46
2021/03/22 01:33:08;;;;;;;31.30;18.23;;;;;;;;;;1052222;28;20028;-44
2021/03/22 01:33:41;;;;;;;29.67;18.17;;;;;;;;;;1047815;28;20063;-45
2021/03/22 01:34:11;;;;;;;29.33;17.92;;;;;;;;;;1048095;28;20553;-46
2021/03/22 01:34:41;;;;;;;26.53;17.50;;;;;;;;;;1048628;28;20028;-44
2021/03/22 01:35:11;;;;;;;31.03;18.50;;;;;;;;;;1052371;28;20483;-45
2021/03/22 01:35:42;;;;;;;25.27;17.70;;;;;;;;;;1052516;28;20016;-45
2021/03/22 01:36:14;;;;;;;27.80;18.97;;;;;;;;;;1052533;28;20016;-45
2021/03/22 01:36:45;;;;;;;27.00;18.35;;;;;;;;;;1052412;28;20539;-48
2021/03/22 01:37:15;;;;;;;29.77;17.73;;;;;;;;;;1052398;28;20024;-45
2021/03/22 01:37:45;;;;;;;30.13;18.23;;;;;;;;;;1052066;28;20027;-46
2021/03/22 01:38:16;;;;;;;29.30;18.13;;;;;;;;;;1048027;28;20028;-45
2021/03/22 01:38:46;;;;;;;26.67;17.63;;;;;;;;;;1047921;28;20562;-46
2021/03/22 01:39:18;;;;;;;28.83;18.27;;;;;;;;;;1047993;28;20119;-46
2021/03/22 01:39:48;;;;;;;29.83;18.65;;;;;;;;;;1048276;28;20016;-45
2021/03/22 01:40:27;;;;;;;28.00;19.17;;;;;;;;;;1047673;28;20532;-46
2021/03/22 01:41:16;;;;;;;26.02;18.40;;;;;;;;;;1046468;28;20021;-45
2021/03/22 01:41:55;;;;;;;30.92;18.42;;;;;;;;;;1051519;28;20038;-45
2021/03/22 01:42:44;;;;;;;32.70;18.75;;;;;;;;;;1051995;28;20032;-45
2021/03/22 01:43:33;;;;;;;27.23;18.10;;;;;;;;;;1051691;28;20032;-45
2021/03/22 01:44:22;;;;;;;29.80;18.48;;;;;;;;;;1050117;28;20043;-46
2021/03/22 01:44:54;;;;;;;25.10;17.33;;;;;;;;;;1051770;28;20013;-47
2021/03/22 01:45:24;;;;;;;34.05;18.35;;;;;;;;;;1052610;28;20427;-45
2021/03/22 01:45:54;;;;;;;28.50;18.33;;;;;;;;;;1052206;28;20028;-45
2021/03/22 01:46:25;;;;;;;27.93;17.80;;;;;;;;;;1052241;28;20050;-47
2021/03/22 01:47:02;;;;;;;28.40;18.00;;;;;;;;;;1048004;28;20028;-45
2021/03/22 01:47:33;;;;;;;28.90;18.50;;;;;;;;;;1049078;28;20021;-44
2021/03/22 01:48:03;;;;;;;28.40;18.30;;;;;;;;;;1052143;28;20436;-45
2021/03/22 01:48:33;;;;;;;27.27;18.13;;;;;;;;;;1048008;28;20017;-45
2021/03/22 01:49:05;;;;;;;28.63;18.00;;;;;;;;;;1048130;28;20025;-45
2021/03/22 01:49:39;;;;;;;30.27;18.58;;;;;;;;;;1045431;28;20324;-47
2021/03/22 01:50:13;;;;;;;31.85;18.75;;;;;;;;;;1044888;28;20025;-47
2021/03/22 01:50:43;;;;;;;26.15;18.45;;;;;;;;;;1047981;28;20048;-45
2021/03/22 01:51:14;;;;;;;30.70;19.37;;;;;;;;;;1045285;28;20431;-44
2021/03/22 01:51:44;;;;;;;27.07;17.97;;;;;;;;;;1046292;28;20040;-45
2021/03/22 01:52:14;;;;;;;26.73;17.97;;;;;;;;;;1047621;28;20336;-46
2021/03/22 01:52:45;;;;;;;26.87;18.47;;;;;;;;;;1043712;28;20122;-46
2021/03/22 01:53:16;;;;;;;30.60;18.37;;;;;;;;;;1043840;28;20005;-45
2021/03/22 01:53:46;;;;;;;29.53;18.07;;;;;;;;;;1043908;28;20481;-45
2021/03/22 01:54:16;;;;;;;31.27;18.73;;;;;;;;;;1047929;28;20110;-45
2021/03/22 01:54:47;;;;;;;26.37;17.83;;;;;;;;;;1052533;28;20000;-46
2021/03/22 01:55:18;;;;;;;29.27;17.90;;;;;;;;;;1052486;28;20016;-46
2021/03/22 01:55:48;;;;;;;28.20;17.47;;;;;;;;;;1052439;28;20024;-45
2021/03/22 01:56:21;;;;;;;28.60;17.87;;;;;;;;;;1052464;28;20014;-45
2021/03/22 01:57:11;;;;;;;29.80;18.77;;;;;;;;;;1052402;28;20004;-46
2021/03/22 01:57:42;;;;;;;32.33;18.02;;;;;;;;;;1049990;28;20023;-45
2021/03/22 01:58:12;;;;;;;29.30;18.40;;;;;;;;;;1052292;28;20062;-46
2021/03/22 01:58:43;;;;;;;28.13;17.50;;;;;;;;;;1052172;28;20510;-46
2021/03/22 01:59:14;;;;;;;27.37;17.47;;;;;;;;;;1052205;28;20095;-46
2021/03/22 01:59:44;;;;;;;29.13;18.33;;;;;;;;;;1044041;28;20096;-46
2021/03/22 02:00:21;;;;;;;29.73;18.43;;;;;;;;;;1047909;28;20253;-46
2021/03/22 02:00:51;;;;;;;31.30;18.50;;;;;;;;;;1048100;28;20410;-48
2021/03/22 02:01:22;;;;;;;29.80;18.87;;;;;;;;;;1048119;28;20028;-46
2021/03/22 02:01:53;;;;;;;30.47;18.67;;;;;;;;;;1043893;28;20476;-45
2021/03/22 02:02:23;;;;;;;31.55;18.75;;;;;;;;;;1043984;28;20041;-47
2021/03/22 02:02:55;;;;;;;31.53;18.57;;;;;;;;;;1043810;28;20383;-45
2021/03/22 02:03:25;;;;;;;34.30;18.58;;;;;;;;;;1044328;28;20013;-46
2021/03/22 02:03:55;;;;;;;27.63;16.77;;;;;;;;;;1048226;28;20036;-47
2021/03/22 02:04:26;;;;;;;30.70;19.50;;;;;;;;;;1052220;28;20036;-46
2021/03/22 02:04:56;;;;;;;31.90;18.77;;;;;;;;;;1048145;28;20005;-47
2021/03/22 02:05:27;;;;;;;27.23;18.03;;;;;;;;;;1048230;28;20321;-46
2021/03/22 02:05:57;;;;;;;31.50;18.90;;;;;;;;;;1052060;28;20040;-47
2021/03/22 02:06:28;;;;;;;31.17;18.27;;;;;;;;;;1048151;28;20024;-47
2021/03/22 02:06:58;;;;;;;27.83;17.27;;;;;;;;;;1052137;28;20012;-46
2021/03/22 02:07:28;;;;;;;33.10;18.93;;;;;;;;;;1048026;28;20028;-45
2021/03/22 02:08:08;;;;;;;30.77;19.30;;;;;;;;;;1043951;28;20017;-45
2021/03/22 02:08:39;;;;;;;27.60;17.25;;;;;;;;;;1048181;28;20008;-46
2021/03/22 02:09:09;;;;;;;27.10;16.83;;;;;;;;;;1048162;28;20473;-46
2021/03/22 02:09:40;;;;;;;28.80;17.93;;;;;;;;;;1049522;28;20013;-45
2021/03/22 02:10:10;;;;;;;26.40;17.47;;;;;;;;;;1052413;28;20008;-46
2021/03/22 02:10:42;;;;;;;32.97;17.57;;;;;;;;;;1052288;28;20410;-46
2021/03/22 02:11:27;;;;;;;27.80;17.83;;;;;;;;;;1052088;28;20341;-45
2021/03/22 02:11:58;;;;;;;28.33;17.92;;;;;;;;;;1047931;28;20062;-46
2021/03/22 02:12:29;;;;;;;30.23;17.97;;;;;;;;;;1047980;28;20100;-45
2021/03/22 02:12:59;;;;;;;27.42;17.08;;;;;;;;;;1049677;28;20017;-46
2021/03/22 02:13:30;;;;;;;26.73;17.80;;;;;;;;;;1052171;28;20039;-46
2021/03/22 02:14:00;;;;;;;31.23;18.03;;;;;;;;;;1051982;28;20050;-44
2021/03/22 02:14:31;;;;;;;36.77;17.77;;;;;;;;;;1051055;28;20018;-45
2021/03/22 02:15:01;;;;;;;29.07;18.33;;;;;;;;;;1052412;28;20008;-46
2021/03/22 02:15:31;;;;;;;28.53;17.43;;;;;;;;;;1043684;28;20496;-45
2021/03/22 02:16:08;;;;;;;26.83;17.27;;;;;;;;;;1041493;28;20040;-45
2021/03/22 02:16:50;;;;;;;31.20;18.20;;;;;;;;;;1039807;28;20017;-45
2021/03/22 02:17:25;;;;;;;31.27;18.45;;;;;;;;;;1040234;28;20021;-46
2021/03/22 02:17:55;;;;;;;34.85;17.40;;;;;;;;;;1043481;28;20446;-49
2021/03/22 02:18:29;;;;;;;29.97;17.83;;;;;;;;;;1044465;28;20029;-45
2021/03/22 02:19:20;;;;;;;30.20;17.50;;;;;;;;;;1047267;28;20568;-45
2021/03/22 02:19:50;;;;;;;;;;;;;;;;;;1050924;28;20017;-45
2021/03/22 02:20:32;;;;;;;28.83;16.70;;;;;;;;;;1052949;28;19904;-45
2021/03/22 02:21:26;;;;;;;36.67;17.42;;;;;;;;;;1052853;28;20566;-46
2021/03/22 02:22:15;;;;;;;29.20;15.88;;;;;;;;;;1052836;28;20059;-46
2021/03/22 02:22:58;;;;;;;30.88;16.48;;;;;;;;;;1052791;28;20050;-46
2021/03/22 02:23:34;;;;;;;35.15;17.98;;;;;;;;;;1047175;28;20040;-45
2021/03/22 02:24:17;;;;;;;34.70;17.65;;;;;;;;;;1048865;28;20026;-45
2021/03/22 02:25:13;;;;;;;33.88;17.85;;;;;;;;;;1051224;28;20480;-45
2021/03/22 02:26:04;;;;;;;32.83;16.77;;;;;;;;;;1051565;28;20029;-47
2021/03/22 02:26:49;;;;;;;26.70;15.82;;;;;;;;;;1052024;28;20128;-46
2021/03/22 02:27:37;;;;;;;32.88;16.15;;;;;;;;;;1052741;28;20020;-48
2021/03/22 02:28:11;;;;;;;28.00;16.08;;;;;;;;;;1051252;28;20094;-46
2021/03/22 02:28:47;;;;;;;32.92;15.48;;;;;;;;;;1046332;28;20025;-45
2021/03/22 02:29:24;;;;;;;29.50;15.43;;;;;;;;;;1048168;28;20021;-46
2021/03/22 02:29:54;;;;;;;38.15;16.13;;;;;;;;;;1048646;28;20086;-45
2021/03/22 02:30:42;;;;;;;32.57;15.43;;;;;;;;;;1050335;28;20093;-46
2021/03/22 02:31:24;;;;;;;35.15;15.88;;;;;;;;;;1050786;28;20012;-46
2021/03/22 02:32:00;;;;;;;31.95;15.05;;;;;;;;;;1048390;28;20071;-48
2021/03/22 02:32:33;;;;;;;29.88;14.70;;;;;;;;;;1048542;28;20102;-46
2021/03/22 02:33:20;;;;;;;28.27;15.23;;;;;;;;;;1051469;28;20396;-46
2021/03/22 02:33:50;;;;;;;31.33;15.48;;;;;;;;;;1048930;28;20024;-45
2021/03/22 02:34:32;;;;;;;34.83;15.90;;;;;;;;;;1053035;28;20012;-46
2021/03/22 02:35:06;;;;;;;30.63;14.70;;;;;;;;;;1050501;28;20016;-46
2021/03/22 02:35:38;;;;;;;27.30;14.77;;;;;;;;;;1049861;28;20005;-50
2021/03/22 02:36:10;;;;;;;34.30;15.02;;;;;;;;;;1049892;28;20009;-48
2021/03/22 02:36:49;;;;;;;26.98;15.30;;;;;;;;;;1047526;28;20062;-48
2021/03/22 02:37:40;;;;;;;34.97;16.20;;;;;;;;;;1050999;28;20057;-46
2021/03/22 02:38:15;;;;;;;27.58;14.73;;;;;;;;;;1051257;28;20101;-48
2021/03/22 02:38:46;;;;;;;30.33;15.15;;;;;;;;;;1048700;28;20017;-47
2021/03/22 02:39:16;;;;;;;30.30;16.63;;;;;;;;;;1044401;28;20486;-45
2021/03/22 02:40:21;;;;;;;26.77;16.60;;;;;;;;;;1045208;28;20100;-46
2021/03/22 02:40:52;;;;;;;36.45;16.35;;;;;;;;;;1048865;28;20059;-47
2021/03/22 02:41:24;;;;;;;27.87;16.10;;;;;;;;;;1052697;28;20174;-48
2021/03/22 02:41:54;;;;;;;37.65;16.98;;;;;;;;;;1052641;28;20034;-50
2021/03/22 02:42:25;;;;;;;31.07;17.37;;;;;;;;;;1052537;28;20031;-49
2021/03/22 02:42:55;;;;;;;33.77;17.50;;;;;;;;;;1052586;28;20387;-49
2021/03/22 02:43:26;;;;;;;30.87;16.27;;;;;;;;;;1052449;28;20040;-46
2021/03/22 02:43:59;;;;;;;39.30;17.17;;;;;;;;;;1052647;28;20062;-47
2021/03/22 02:44:31;;;;;;;33.13;16.40;;;;;;;;;;1052689;28;20019;-46
2021/03/22 02:45:01;;;;;;;28.67;16.00;;;;;;;;;;1052736;28;20153;-47
2021/03/22 02:45:38;;;;;;;38.50;16.90;;;;;;;;;;1048290;28;20454;-44
2021/03/22 02:46:09;;;;;;;34.30;16.30;;;;;;;;;;1048465;28;20043;-45
2021/03/22 02:46:39;;;;;;;32.10;15.50;;;;;;;;;;1048211;28;20058;-46
2021/03/22 02:47:20;;;;;;;33.93;17.33;;;;;;;;;;1049352;28;20008;-46
2021/03/22 02:47:50;;;;;;;31.77;16.20;;;;;;;;;;1052425;28;20061;-45
2021/03/22 02:48:22;;;;;;;35.57;15.63;;;;;;;;;;1052580;28;20070;-45
2021/03/22 02:48:52;;;;;;;32.75;16.70;;;;;;;;;;1052532;28;20463;-45
2021/03/22 02:49:23;;;;;;;32.33;16.33;;;;;;;;;;1052569;28;20031;-46
2021/03/22 02:49:54;;;;;;;35.87;16.93;;;;;;;;;;1048263;28;20009;-46
2021/03/22 02:50:26;;;;;;;29.02;15.80;;;;;;;;;;1044228;28;20013;-46
2021/03/22 02:51:08;;;;;;;30.15;14.55;;;;;;;;;;1040085;28;20360;-46
2021/03/22 02:51:44;;;;;;;30.48;15.60;;;;;;;;;;1037896;28;20014;-46
2021/03/22 02:52:24;;;;;;;31.17;17.05;;;;;;;;;;1039902;28;20049;-45
2021/03/22 02:53:13;;;;;;;33.90;14.90;;;;;;;;;;1043794;28;20196;-46
2021/03/22 02:53:45;;;;;;;30.48;15.27;;;;;;;;;;1044092;28;20018;-47
2021/03/22 02:54:35;;;;;;;31.10;15.52;;;;;;;;;;1044923;28;20013;-46
2021/03/22 02:55:05;;;;;;;27.42;14.05;;;;;;;;;;1050197;28;20025;-45
2021/03/22 02:55:45;;;;;;;31.47;14.50;;;;;;;;;;1052358;28;20016;-46
2021/03/22 02:56:25;;;;;;;26.67;14.38;;;;;;;;;;1052482;28;20015;-46
2021/03/22 02:57:15;;;;;;;31.92;13.77;;;;;;;;;;1052535;28;20008;-45
2021/03/22 02:57:45;;;;;;;;;;;;;;;;;;1050599;28;20128;-46
2021/03/22 02:58:16;;;;;;;31.40;14.13;;;;;;;;;;1052507;28;20260;-45
2021/03/22 02:58:51;;;;;;;31.77;13.13;;;;;;;;;;1048330;28;20035;-46
2021/03/22 02:59:23;;;;;;;29.00;14.43;;;;;;;;;;1037434;28;20156;-44
2021/03/22 02:59:58;;;;;;;32.40;12.93;;;;;;;;;;1035911;28;20042;-45
2021/03/22 03:00:32;;;;;;;32.53;14.05;;;;;;;;;;1033305;28;20046;-45
2021/03/22 03:01:07;;;;;;;31.85;14.60;;;;;;;;;;1037241;28;20106;-46
2021/03/22 03:01:42;;;;;;;29.77;13.73;;;;;;;;;;1041661;28;20022;-45
2021/03/22 03:02:12;;;;;;;32.50;14.18;;;;;;;;;;1039999;28;20092;-45
2021/03/22 03:02:42;;;;;;;28.67;12.53;;;;;;;;;;1036054;28;20064;-45
2021/03/22 03:03:13;;;;;;;29.90;13.27;;;;;;;;;;1039583;28;20087;-45
2021/03/22 03:03:44;;;;;;;31.15;13.20;;;;;;;;;;1044074;28;20025;-46
2021/03/22 03:04:15;;;;;;;35.15;14.45;;;;;;;;;;1044246;28;20017;-45
2021/03/22 03:04:45;;;;;;;32.67;13.67;;;;;;;;;;1048001;28;20016;-45
2021/03/22 03:05:16;;;;;;;32.60;14.33;;;;;;;;;;1047633;28;20065;-46
2021/03/22 03:05:47;;;;;;;30.48;13.80;;;;;;;;;;1048334;28;20021;-46
2021/03/22 03:06:18;;;;;;;40.70;13.73;;;;;;;;;;1047935;28;20012;-45
2021/03/22 03:06:53;;;;;;;28.50;12.93;;;;;;;;;;1048212;28;20100;-45
2021/03/22 03:07:24;;;;;;;24.75;12.43;;;;;;;;;;1045975;28;20090;-46
2021/03/22 03:07:55;;;;;;;32.93;13.77;;;;;;;;;;1044888;28;20464;-47
2021/03/22 03:08:29;;;;;;;25.67;12.52;;;;;;;;;;1048396;28;20020;-46
2021/03/22 03:08:59;;;;;;;31.10;13.48;;;;;;;;;;1048275;28;20017;-46
2021/03/22 03:09:33;;;;;;;28.90;13.13;;;;;;;;;;1048855;28;20033;-47
2021/03/22 03:10:04;;;;;;;26.98;12.65;;;;;;;;;;1050177;28;20035;-45
2021/03/22 03:10:35;;;;;;;28.85;13.07;;;;;;;;;;1048288;28;20103;-45